Time;durP1;ratioP1;P1;durP2;ratioP2;P2;SDS_P1;SDS_P2;PMS_P1;PMS_P2;Temp;Humidity;BMP_temperature;BMP_pressure;BME280_temperature;BME280_humidity;BME280_pressure;Samples;Min_cycle;Max_cycle;Signal;HPM_P1;HPM_P2
2023/08/16 00:00:14;;;;;;;5.67;5.17;;;;;;;21.84;100.00;156982.38;5037417;28;20889;-79
2023/08/16 00:02:41;;;;;;;6.70;5.90;;;;;;;21.75;100.00;156958.91;5060781;28;20459;-78
2023/08/16 00:05:08;;;;;;;5.80;4.80;;;;;;;21.75;100.00;156957.59;5054981;28;20451;-78
2023/08/16 00:07:35;;;;;;;5.63;5.13;;;;;;;21.72;100.00;156951.06;5049667;28;20457;-79
2023/08/16 00:10:01;;;;;;;5.60;5.10;;;;;;;21.69;100.00;156943.22;5029089;28;20522;-79
2023/08/16 00:12:29;;;;;;;5.77;4.97;;;;;;;21.65;100.00;156931.47;5053162;28;20454;-78
2023/08/16 00:14:56;;;;;;;5.20;4.70;;;;;;;21.63;100.00;156926.28;5062261;28;20461;-79
2023/08/16 00:17:22;;;;;;;5.60;5.10;;;;;;;21.63;100.00;156927.53;5059378;28;20535;-78
2023/08/16 00:19:49;;;;;;;6.27;5.67;;;;;;;21.64;100.00;156930.16;5041139;28;20821;-79
2023/08/16 00:22:15;;;;;;;5.87;4.97;;;;;;;21.67;100.00;156938.00;5061869;28;20446;-78
2023/08/16 00:24:42;;;;;;;5.57;5.07;;;;;;;21.71;100.00;156947.16;5047383;28;20474;-79
2023/08/16 00:27:08;;;;;;;5.43;4.93;;;;;;;21.76;100.00;156960.22;5051047;28;20458;-78
2023/08/16 00:29:36;;;;;;;9.07;4.70;;;;;;;21.76;100.00;156960.22;5018980;28;20835;-78
2023/08/16 00:32:07;;;;;;;6.17;4.70;;;;;;;21.77;100.00;156964.09;5023002;28;20447;-78
2023/08/16 00:34:34;;;;;;;5.40;4.67;;;;;;;21.90;100.00;156996.78;5057632;28;20459;-78
2023/08/16 00:37:03;;;;;;;5.23;4.83;;;;;;;21.88;100.00;156990.25;5059961;28;20458;-78
2023/08/16 00:39:29;;;;;;;5.00;4.60;;;;;;;21.72;100.00;156951.06;5069160;28;20463;-78
2023/08/16 00:41:56;;;;;;;6.30;5.53;;;;;;;21.60;100.00;156919.75;5064916;28;21014;-79
2023/08/16 00:44:22;;;;;;;5.93;5.23;;;;;;;21.56;100.00;156909.28;5052669;28;20451;-78
2023/08/16 00:46:50;;;;;;;6.20;5.13;;;;;;;21.58;100.00;156914.47;5041151;28;20482;-78
2023/08/16 00:49:17;;;;;;;5.93;5.30;;;;;;;21.58;100.00;156914.47;5064031;28;20968;-78
2023/08/16 00:51:46;;;;;;;6.20;5.60;;;;;;;21.52;100.00;156898.84;5059152;28;20439;-77
2023/08/16 00:54:12;;;;;;;7.67;6.07;;;;;;;21.42;100.00;156871.44;5049904;28;20459;-78
2023/08/16 00:56:39;;;;;;;6.43;5.80;;;;;;;21.35;100.00;156853.13;5063606;28;20476;-77
2023/08/16 00:59:07;;;;;;;7.30;6.60;;;;;;;21.39;100.00;156864.91;5050790;28;20566;-78
2023/08/16 01:01:34;;;;;;;7.83;7.10;;;;;;;21.35;100.00;156854.44;5048342;28;20467;-78
2023/08/16 01:04:02;;;;;;;8.03;7.30;;;;;;;21.25;100.00;156828.34;5045938;28;20467;-78
2023/08/16 01:06:28;;;;;;;6.77;6.17;;;;;;;21.26;100.00;156830.94;5054466;28;20453;-78
2023/08/16 01:08:55;;;;;;;6.70;6.10;;;;;;;21.20;100.00;156815.31;5057718;28;20438;-78
2023/08/16 01:11:25;;;;;;;6.60;6.00;;;;;;;21.25;100.00;156828.34;5048390;28;20438;-78
2023/08/16 01:13:57;;;;;;;6.60;6.00;;;;;;;21.20;100.00;156815.31;5032110;28;20492;-78
2023/08/16 01:16:24;;;;;;;7.13;5.87;;;;;;;21.15;100.00;156802.25;5075733;28;20446;-78
2023/08/16 01:18:51;;;;;;;6.67;5.97;;;;;;;21.09;100.00;156787.91;5061426;28;20470;-78
2023/08/16 01:21:20;;;;;;;6.70;6.10;;;;;;;21.03;100.00;156772.19;5043098;28;20956;-77
2023/08/16 01:23:53;;;;;;;6.83;6.00;;;;;;;21.02;100.00;156768.28;5059057;28;20462;-78
2023/08/16 01:26:30;;;;;;;6.90;6.30;;;;;;;21.03;100.00;156770.88;5058173;28;20808;-78
2023/08/16 01:28:58;;;;;;;8.00;5.97;;;;;;;21.03;100.00;156770.88;5062237;28;20490;-78
2023/08/16 01:31:25;;;;;;;6.03;5.53;;;;;;;20.97;100.00;156756.50;5065680;28;20438;-78
2023/08/16 01:33:52;;;;;;;7.13;6.27;;;;;;;20.95;100.00;156751.31;5063839;28;20458;-78
2023/08/16 01:36:18;;;;;;;8.03;7.33;;;;;;;20.90;100.00;156738.25;5065868;28;20449;-78
2023/08/16 01:38:45;;;;;;;7.53;6.83;;;;;;;20.83;100.00;156718.69;5033429;28;20489;-77
2023/08/16 01:41:17;;;;;;;7.50;6.80;;;;;;;20.82;100.00;156716.06;5045107;28;20459;-78
2023/08/16 01:43:45;;;;;;;7.60;6.90;;;;;;;20.83;100.00;156718.69;5040669;28;20475;-77
2023/08/16 01:46:12;;;;;;;7.10;6.40;;;;;;;20.85;100.00;156725.22;5044774;28;20455;-78
2023/08/16 01:48:39;;;;;;;7.70;7.00;;;;;;;20.86;100.00;156726.53;5069440;28;20879;-77
2023/08/16 01:51:06;;;;;;;7.00;6.30;;;;;;;20.82;100.00;156716.06;5066099;28;20453;-77
2023/08/16 01:53:33;;;;;;;8.00;7.20;;;;;;;20.79;100.00;156709.53;5055993;28;20446;-77
2023/08/16 01:56:00;;;;;;;6.33;5.83;;;;;;;20.76;100.00;156700.44;5046624;28;20898;-77
2023/08/16 01:58:27;;;;;;;7.90;7.10;;;;;;;20.72;100.00;156689.97;5074990;28;20486;-77
2023/08/16 02:00:55;;;;;;;8.60;7.80;;;;;;;20.67;100.00;156678.25;5056328;28;20520;-77
2023/08/16 02:03:21;;;;;;;7.90;7.13;;;;;;;20.65;100.00;156673.03;5046325;28;20455;-77
2023/08/16 02:05:48;;;;;;;7.60;6.83;;;;;;;20.61;100.00;156662.59;5056716;28;20974;-77
2023/08/16 02:08:15;;;;;;;5.80;5.30;;;;;;;20.60;100.00;156661.28;5059574;28;21564;-77
2023/08/16 02:10:41;;;;;;;7.53;6.47;;;;;;;20.61;100.00;156662.59;5045599;28;20554;-77
2023/08/16 02:13:08;;;;;;;8.10;7.40;;;;;;;20.57;100.00;156653.44;5053963;28;20461;-77
2023/08/16 02:15:35;;;;;;;8.00;7.20;;;;;;;20.53;100.00;156643.03;5034088;28;20528;-77
2023/08/16 02:18:03;;;;;;;7.57;6.87;;;;;;;20.45;100.00;156622.16;5026499;28;20487;-77
2023/08/16 02:20:30;;;;;;;8.80;7.90;;;;;;;20.46;100.00;156623.47;5069054;28;20443;-77
2023/08/16 02:22:56;;;;;;;9.43;7.10;;;;;;;20.45;100.00;156622.16;5047071;28;20451;-77
2023/08/16 02:25:24;;;;;;;7.67;6.97;;;;;;;20.49;100.00;156632.56;5028969;28;20470;-77
2023/08/16 02:27:51;;;;;;;8.30;7.30;;;;;;;20.46;100.00;156624.78;5040054;28;20457;-77
2023/08/16 02:30:17;;;;;;;8.37;6.80;;;;;;;20.41;100.00;156610.44;5068219;28;20454;-77
2023/08/16 02:32:44;;;;;;;8.10;6.87;;;;;;;20.36;100.00;156598.66;5047458;28;20840;-76
2023/08/16 02:35:12;;;;;;;7.00;6.37;;;;;;;20.32;100.00;156588.25;5039234;28;20463;-77
2023/08/16 02:37:39;;;;;;;6.83;6.23;;;;;;;20.29;100.00;156579.09;5046184;28;20516;-77
2023/08/16 02:40:07;;;;;;;7.40;6.77;;;;;;;20.26;100.00;156571.25;5063507;28;20442;-77
2023/08/16 02:42:34;;;;;;;6.90;6.30;;;;;;;20.22;100.00;156560.81;5056421;28;20457;-76
2023/08/16 02:45:00;;;;;;;8.00;7.20;;;;;;;20.25;100.00;156568.69;5067316;28;20456;-76
2023/08/16 02:47:28;;;;;;;7.77;7.00;;;;;;;20.20;100.00;156556.84;5029336;28;20451;-76
2023/08/16 02:49:55;;;;;;;8.23;7.53;;;;;;;20.17;100.00;156549.06;5045853;28;20459;-76
2023/08/16 02:52:23;;;;;;;7.33;6.63;;;;;;;20.15;100.00;156542.56;5046081;28;20458;-76
2023/08/16 02:54:50;;;;;;;7.60;6.87;;;;;;;20.19;100.00;156552.97;5047539;28;20461;-76
2023/08/16 02:57:18;;;;;;;7.60;6.43;;;;;;;20.15;100.00;156543.81;5064014;28;20466;-76
2023/08/16 02:59:46;;;;;;;10.90;6.47;;;;;;;20.07;100.00;156522.94;5044872;28;20482;-76
2023/08/16 03:02:13;;;;;;;7.80;7.10;;;;;;;20.04;100.00;156516.44;5034161;28;20462;-78
2023/08/16 03:04:40;;;;;;;8.90;7.63;;;;;;;20.04;100.00;156516.44;5054099;28;20455;-76
2023/08/16 03:07:07;;;;;;;7.90;7.10;;;;;;;20.00;100.00;156504.72;5046172;28;20435;-76
2023/08/16 03:09:35;;;;;;;7.33;6.50;;;;;;;19.95;100.00;156491.69;5059055;28;20447;-76
2023/08/16 03:12:02;;;;;;;7.53;6.93;;;;;;;19.94;100.00;156489.06;5053460;28;20453;-76
2023/08/16 03:14:29;;;;;;;7.60;6.90;;;;;;;19.92;100.00;156483.84;5065636;28;20438;-76
2023/08/16 03:16:56;;;;;;;10.20;7.50;;;;;;;19.95;100.00;156493.00;5060848;28;20467;-76
2023/08/16 03:19:23;;;;;;;7.20;6.50;;;;;;;19.93;100.00;156487.78;5046053;28;20474;-76
2023/08/16 03:21:50;;;;;;;7.83;7.03;;;;;;;19.97;100.00;156498.19;5070926;28;20454;-76
2023/08/16 03:24:16;;;;;;;8.47;6.67;;;;;;;19.99;100.00;156502.09;5062531;28;20455;-76
2023/08/16 03:26:44;;;;;;;7.97;7.23;;;;;;;19.92;100.00;156485.16;5061440;28;20458;-77
2023/08/16 03:29:11;;;;;;;7.90;7.20;;;;;;;19.94;100.00;156489.06;5041245;28;20481;-76
2023/08/16 03:31:38;;;;;;;7.97;7.17;;;;;;;19.85;100.00;156466.94;5042413;28;20544;-77
2023/08/16 03:34:05;;;;;;;7.87;7.17;;;;;;;19.83;100.00;156461.66;5049187;28;20979;-77
2023/08/16 03:36:32;;;;;;;7.60;6.90;;;;;;;19.80;100.00;156452.59;5035891;28;21040;-77
2023/08/16 03:39:05;;;;;;;8.50;7.37;;;;;;;19.77;100.00;156444.75;5047107;28;20474;-77
2023/08/16 03:41:32;;;;;;;8.43;7.63;;;;;;;19.75;100.00;156440.81;5044232;28;20871;-77
2023/08/16 03:44:00;;;;;;;12.23;6.97;;;;;;;19.73;100.00;156434.28;5061147;28;20443;-77
2023/08/16 03:46:27;;;;;;;8.20;7.50;;;;;;;19.75;100.00;156440.81;5023230;28;20440;-77
2023/08/16 03:48:54;;;;;;;11.17;7.30;;;;;;;19.73;100.00;156434.28;5043387;28;20458;-77
2023/08/16 03:51:20;;;;;;;8.00;7.30;;;;;;;19.72;100.00;156431.72;5047115;28;20458;-77
2023/08/16 03:53:47;;;;;;;8.60;7.80;;;;;;;19.71;100.00;156429.09;5055136;28;20498;-77
2023/08/16 03:56:13;;;;;;;9.33;8.27;;;;;;;19.75;100.00;156440.81;5043005;28;21019;-77
2023/08/16 03:58:40;;;;;;;8.93;8.03;;;;;;;19.77;100.00;156444.75;5058078;28;20963;-77
2023/08/16 04:01:08;;;;;;;9.23;8.37;;;;;;;19.74;100.00;156436.91;5055795;28;20465;-77
2023/08/16 04:03:35;;;;;;;11.83;7.60;;;;;;;19.75;100.00;156439.56;5044369;28;20843;-77
2023/08/16 04:06:01;;;;;;;9.23;8.40;;;;;;;19.78;100.00;156447.31;5041716;28;20458;-77
2023/08/16 04:08:28;;;;;;;8.97;8.10;;;;;;;19.79;100.00;156451.28;5049098;28;20829;-77
2023/08/16 04:10:54;;;;;;;9.23;8.10;;;;;;;19.83;100.00;156460.41;5060332;28;20845;-77
2023/08/16 04:13:21;;;;;;;9.83;8.83;;;;;;;19.86;100.00;156468.19;5061262;28;20462;-77
2023/08/16 04:15:48;;;;;;;8.80;8.00;;;;;;;19.84;100.00;156463.00;5043026;28;20815;-77
2023/08/16 04:18:17;;;;;;;8.27;7.50;;;;;;;19.85;100.00;156465.63;5044175;28;20455;-77
2023/08/16 04:20:43;;;;;;;8.13;7.33;;;;;;;19.86;100.00;156469.50;5052643;28;20494;-77
2023/08/16 04:23:10;;;;;;;8.53;7.07;;;;;;;19.88;100.00;156473.44;5046849;28;20909;-77
2023/08/16 04:25:37;;;;;;;6.93;6.33;;;;;;;19.87;100.00;156472.13;5031091;28;20482;-79
2023/08/16 04:28:04;;;;;;;6.93;6.23;;;;;;;19.85;100.00;156466.94;5036608;28;20490;-79
2023/08/16 04:30:31;;;;;;;6.70;6.20;;;;;;;19.88;100.00;156473.44;5064918;28;20496;-78
2023/08/16 04:32:58;;;;;;;7.47;6.77;;;;;;;19.86;100.00;156468.19;5048062;28;20486;-78
2023/08/16 04:35:26;;;;;;;6.00;5.50;;;;;;;19.85;100.00;156465.63;5034337;28;20470;-78
2023/08/16 04:37:52;;;;;;;6.90;5.93;;;;;;;19.90;100.00;156478.66;5026647;28;20466;-78
2023/08/16 04:40:20;;;;;;;6.23;5.63;;;;;;;19.93;100.00;156486.47;5028816;28;20514;-78
2023/08/16 04:42:46;;;;;;;6.40;5.80;;;;;;;19.98;100.00;156500.81;5039846;28;20462;-79
2023/08/16 04:45:14;;;;;;;7.30;6.43;;;;;;;19.99;100.00;156503.41;5034282;28;20447;-78
2023/08/16 04:47:40;;;;;;;7.23;6.53;;;;;;;19.95;100.00;156493.00;5063911;28;21269;-78
2023/08/16 04:50:07;;;;;;;7.53;6.83;;;;;;;19.89;100.00;156476.03;5057574;28;20513;-78
2023/08/16 04:52:37;;;;;;;7.33;6.63;;;;;;;19.86;100.00;156468.19;5038757;28;20815;-78
2023/08/16 04:55:05;;;;;;;6.40;5.80;;;;;;;19.85;100.00;156466.94;5046590;28;20443;-78
2023/08/16 04:57:32;;;;;;;7.03;6.33;;;;;;;19.84;100.00;156463.00;5048140;28;20465;-78
2023/08/16 04:59:59;;;;;;;7.00;6.20;;;;;;;19.89;100.00;156476.03;5033117;28;20471;-79
2023/08/16 05:02:26;;;;;;;7.20;6.60;;;;;;;19.96;100.00;156495.56;5064346;28;20459;-79
2023/08/16 05:04:53;;;;;;;7.03;6.33;;;;;;;19.97;100.00;156496.88;5032440;28;20946;-79
2023/08/16 05:07:22;;;;;;;7.17;6.47;;;;;;;19.96;100.00;156494.31;5055865;28;20459;-79
2023/08/16 05:09:50;;;;;;;8.47;7.60;;;;;;;19.93;100.00;156486.47;5037283;28;20458;-79
2023/08/16 05:12:16;;;;;;;7.80;7.10;;;;;;;19.92;100.00;156485.16;5055573;28;20451;-79
2023/08/16 05:14:43;;;;;;;8.80;7.90;;;;;;;19.97;100.00;156496.88;5056514;28;20458;-79
2023/08/16 05:17:10;;;;;;;9.87;8.03;;;;;;;20.00;100.00;156504.72;5039404;28;20447;-79
2023/08/16 05:19:37;;;;;;;9.90;8.90;;;;;;;20.04;100.00;156515.19;5041790;28;20506;-79
2023/08/16 05:22:03;;;;;;;9.13;8.23;;;;;;;20.14;100.00;156541.25;5071336;28;20669;-79
2023/08/16 05:24:30;;;;;;;8.03;7.20;;;;;;;20.32;100.00;156588.25;5039736;28;20962;-79
2023/08/16 05:27:12;;;;;;;8.97;8.07;;;;;;;20.54;100.00;156645.59;5038356;28;20510;-79
2023/08/16 05:29:39;;;;;;;9.67;8.67;;;;;;;20.76;100.00;156701.72;5052996;28;20470;-79
2023/08/16 05:32:06;;;;;;;11.50;8.40;;;;;;;21.00;100.00;156763.03;5053207;28;20524;-79
2023/08/16 05:34:32;;;;;;;11.13;8.67;;;;;;;21.22;100.00;156820.53;5056187;28;20969;-79
2023/08/16 05:36:59;;;;;;;8.80;8.00;;;;;;;21.40;100.00;156867.50;5034922;28;20456;-79
2023/08/16 05:39:25;;;;;;;8.73;7.83;;;;;;;21.59;100.00;156915.81;5040777;28;20482;-79
2023/08/16 05:41:55;;;;;;;7.73;7.03;;;;;;;21.76;100.00;156960.22;5038401;28;20451;-79
2023/08/16 05:44:23;;;;;;;8.13;7.33;;;;;;;21.92;100.00;157000.72;5040317;28;20451;-79
2023/08/16 05:46:50;;;;;;;8.23;7.37;;;;;;;22.07;100.00;157039.88;5039952;28;20455;-79
2023/08/16 05:49:16;;;;;;;7.67;6.93;;;;;;;22.19;100.00;157071.22;5038608;28;20444;-79
2023/08/16 05:51:43;;;;;;;8.10;7.30;;;;;;;22.32;100.00;157106.47;5037888;28;20459;-79
2023/08/16 05:54:09;;;;;;;9.83;7.60;;;;;;;22.51;100.00;157154.81;5053979;28;20861;-79
2023/08/16 05:56:37;;;;;;;8.30;6.90;;;;;;;22.71;100.00;157207.16;5052956;28;21039;-79
2023/08/16 05:59:04;;;;;;;7.70;6.90;;;;;;;22.85;100.00;157243.69;5039041;28;21073;-78
2023/08/16 06:01:32;;;;;;;11.30;7.50;;;;;;;22.98;100.00;157277.66;5054809;28;20459;-78
2023/08/16 06:03:59;;;;;;;8.10;7.40;;;;;;;23.11;100.00;157310.38;5053603;28;20458;-78
2023/08/16 06:06:25;;;;;;;8.87;8.00;;;;;;;23.21;100.00;157335.19;5052370;28;20825;-78
2023/08/16 06:08:52;;;;;;;8.17;7.23;;;;;;;23.26;100.00;157348.25;5053398;28;20472;-79
2023/08/16 06:11:18;;;;;;;9.97;7.90;;;;;;;23.26;100.00;157348.25;5054900;28;20467;-78
2023/08/16 06:13:45;;;;;;;8.50;7.70;;;;;;;23.40;100.00;157384.91;5054078;28;20476;-78
2023/08/16 06:16:12;;;;;;;9.03;8.23;;;;;;;23.51;100.00;157413.69;5039543;28;20558;-79
2023/08/16 06:18:43;;;;;;;9.47;8.47;;;;;;;23.61;100.00;157439.81;5037363;28;20473;-78
2023/08/16 06:21:09;;;;;;;9.60;8.67;;;;;;;23.60;99.36;157437.16;5037671;28;20573;-78
2023/08/16 06:23:38;;;;;;;8.73;7.93;;;;;;;23.69;100.00;157460.72;5039900;28;20459;-79
2023/08/16 06:26:04;;;;;;;9.23;8.43;;;;;;;23.70;98.89;157462.00;5037224;28;20444;-79
2023/08/16 06:28:31;;;;;;;10.70;9.70;;;;;;;23.86;100.00;157505.16;5054944;28;20523;-78
2023/08/16 06:30:58;;;;;;;9.50;8.60;;;;;;;23.88;94.72;157510.38;5052649;28;20501;-78
2023/08/16 06:33:24;;;;;;;8.27;7.53;;;;;;;23.93;98.16;157523.47;5038899;28;21011;-78
2023/08/16 06:35:52;;;;;;;9.60;8.60;;;;;;;23.95;97.65;157527.38;5038091;28;20541;-78
2023/08/16 06:38:19;;;;;;;10.43;9.53;;;;;;;23.83;95.96;157497.28;5038435;28;20512;-78
2023/08/16 06:40:46;;;;;;;10.53;9.43;;;;;;;23.64;94.62;157448.91;5053957;28;20497;-78
2023/08/16 06:43:12;;;;;;;10.83;9.37;;;;;;;23.37;95.51;157378.38;5038630;28;20799;-78
2023/08/16 06:45:39;;;;;;;10.00;9.10;;;;;;;23.12;96.82;157311.63;5052240;28;20478;-78
2023/08/16 06:48:07;;;;;;;9.87;8.97;;;;;;;23.01;97.82;157285.50;5035084;28;20455;-78
2023/08/16 06:50:34;;;;;;;9.63;8.73;;;;;;;22.89;99.45;157254.16;5055213;28;20462;-78
2023/08/16 06:53:01;;;;;;;12.00;10.17;;;;;;;22.97;100.00;157275.09;5037262;28;20462;-78
2023/08/16 06:55:28;;;;;;;9.77;8.77;;;;;;;22.94;100.00;157267.25;5038365;28;20550;-77
2023/08/16 06:57:55;;;;;;;9.63;8.83;;;;;;;23.02;100.00;157288.16;5052156;28;21055;-78
2023/08/16 07:00:21;;;;;;;9.70;8.80;;;;;;;23.16;99.58;157322.13;5039942;28;21135;-78
2023/08/16 07:02:48;;;;;;;9.40;8.40;;;;;;;23.37;99.36;157377.06;5036261;28;20484;-78
2023/08/16 07:05:15;;;;;;;10.20;9.07;;;;;;;23.44;97.54;157395.34;5040237;28;20462;-78
2023/08/16 07:07:42;;;;;;;9.30;8.40;;;;;;;23.64;98.28;157447.66;5035486;28;21241;-78
2023/08/16 07:10:10;;;;;;;9.90;9.00;;;;;;;23.94;96.65;157526.06;5050518;28;20525;-78
2023/08/16 07:12:37;;;;;;;9.63;8.67;;;;;;;24.25;93.48;157605.91;5034975;28;20513;-77
2023/08/16 07:15:04;;;;;;;7.90;7.20;;;;;;;24.47;93.28;157663.44;5035848;28;20873;-78
2023/08/16 07:17:31;;;;;;;8.60;7.90;;;;;;;24.58;90.96;157690.91;5051714;28;20446;-78
2023/08/16 07:19:57;;;;;;;10.17;9.07;;;;;;;24.52;90.78;157676.50;5037151;28;20474;-78
2023/08/16 07:22:26;;;;;;;8.90;8.07;;;;;;;24.51;89.28;157672.59;5050765;28;20457;-78
2023/08/16 07:24:53;;;;;;;9.17;8.30;;;;;;;24.36;90.95;157633.38;5036805;28;20460;-78
2023/08/16 07:27:21;;;;;;;9.33;8.43;;;;;;;24.35;90.93;157630.75;5051777;28;20451;-78
2023/08/16 07:29:48;;;;;;;8.83;8.00;;;;;;;24.39;90.32;157641.19;5051204;28;20598;-78
2023/08/16 07:32:15;;;;;;;9.87;9.07;;;;;;;24.32;90.32;157622.88;5049576;28;20452;-78
2023/08/16 07:34:42;;;;;;;8.30;7.50;;;;;;;24.32;90.77;157624.22;5052140;28;20451;-78
2023/08/16 07:37:10;;;;;;;8.03;7.20;;;;;;;24.41;91.92;157647.72;5036359;28;20466;-78
2023/08/16 07:39:36;;;;;;;8.80;7.97;;;;;;;24.62;90.52;157701.38;5036594;28;20480;-78
2023/08/16 07:42:03;;;;;;;8.07;7.47;;;;;;;24.91;90.52;157777.31;5050231;28;20463;-79
2023/08/16 07:44:31;;;;;;;7.87;7.17;;;;;;;25.09;88.16;157823.09;5036188;28;20455;-78
2023/08/16 07:46:58;;;;;;;8.70;7.80;;;;;;;25.04;87.08;157811.34;5035219;28;20452;-78
2023/08/16 07:49:24;;;;;;;8.10;7.40;;;;;;;24.94;87.59;157783.84;5039727;28;21056;-78
2023/08/16 07:51:51;;;;;;;8.50;7.67;;;;;;;25.06;88.42;157815.25;5032755;28;20479;-79
2023/08/16 07:54:18;;;;;;;7.93;7.23;;;;;;;25.23;88.13;157859.75;5048478;28;21913;-79
2023/08/16 07:56:44;;;;;;;8.07;7.23;;;;;;;25.57;86.40;157947.47;5018204;28;20458;-79
2023/08/16 07:59:11;;;;;;;9.23;8.20;;;;;;;25.81;82.84;158010.31;5053949;28;20977;-79
2023/08/16 08:01:39;;;;;;;7.90;7.20;;;;;;;26.06;83.11;158074.44;5049848;28;20474;-79
2023/08/16 08:04:06;;;;;;;9.23;8.23;;;;;;;26.32;80.69;158143.88;5049742;28;20453;-78
2023/08/16 08:06:33;;;;;;;7.83;7.17;;;;;;;26.48;80.24;158185.81;5034759;28;20487;-78
2023/08/16 08:08:59;;;;;;;7.60;6.77;;;;;;;26.66;80.11;158231.69;5036682;28;20508;-79
2023/08/16 08:11:26;;;;;;;8.80;8.00;;;;;;;26.74;77.87;158252.59;5049498;28;20454;-78
2023/08/16 08:13:52;;;;;;;7.80;7.20;;;;;;;26.65;78.57;158227.72;5051027;28;20972;-78
2023/08/16 08:16:19;;;;;;;8.00;7.20;;;;;;;26.89;78.91;158290.66;5035169;28;20451;-78
2023/08/16 08:18:47;;;;;;;10.10;8.40;;;;;;;27.08;77.22;158340.44;5037035;28;20463;-78
2023/08/16 08:21:14;;;;;;;9.37;8.40;;;;;;;27.19;76.88;158369.28;5035756;28;21043;-78
2023/08/16 08:23:41;;;;;;;8.30;7.60;;;;;;;27.30;76.65;158396.78;5025433;28;20446;-78
2023/08/16 08:26:08;;;;;;;9.70;7.90;;;;;;;27.39;75.82;158420.34;5049876;28;20454;-78
2023/08/16 08:28:35;;;;;;;8.20;7.40;;;;;;;27.33;75.45;158405.94;5050700;28;20477;-78
2023/08/16 08:31:02;;;;;;;9.17;8.23;;;;;;;27.31;76.10;158400.69;5053968;28;20450;-78
2023/08/16 08:33:31;;;;;;;8.67;7.93;;;;;;;27.21;76.75;158374.50;5039223;28;21057;-78
2023/08/16 08:36:06;;;;;;;8.60;7.90;;;;;;;27.22;76.20;158377.09;5038702;28;20439;-77
2023/08/16 08:38:38;;;;;;;8.40;7.70;;;;;;;27.37;76.82;158416.44;5037144;28;20976;-78
2023/08/16 08:41:08;;;;;;;9.10;7.80;;;;;;;27.66;76.75;158491.19;5050654;28;20509;-79
2023/08/16 08:43:38;;;;;;;8.30;7.50;;;;;;;27.97;75.11;158571.13;5054557;28;20443;-79
2023/08/16 08:46:10;;;;;;;8.53;7.73;;;;;;;28.04;74.42;158589.56;5032265;28;20562;-78
2023/08/16 08:48:38;;;;;;;8.90;8.00;;;;;;;27.99;73.37;158576.34;5038462;28;20454;-78
2023/08/16 08:51:06;;;;;;;8.10;7.40;;;;;;;28.02;73.78;158584.28;5052631;28;20526;-78
2023/08/16 08:57:04;;;;;;;8.77;7.87;;;;;;;27.64;74.96;158487.22;5049449;26;20902;-78
2023/08/16 08:59:45;;;;;;;8.47;7.73;;;;;;;27.37;74.58;158415.13;5027539;28;20458;-78
2023/08/16 09:02:14;;;;;;;9.27;8.37;;;;;;;27.26;75.41;158386.28;5024755;28;20615;-78
2023/08/16 09:04:43;;;;;;;10.60;9.00;;;;;;;27.04;76.62;158329.94;5037695;28;20992;-78
2023/08/16 09:07:13;;;;;;;11.67;9.83;;;;;;;26.90;80.44;158293.28;5036008;28;20684;-78
2023/08/16 09:09:44;;;;;;;10.27;9.47;;;;;;;26.80;80.00;158268.38;5044264;28;20464;-78
2023/08/16 09:12:16;;;;;;;10.10;9.10;;;;;;;26.79;78.39;158264.47;5045257;28;20481;-78
2023/08/16 09:14:45;;;;;;;9.77;8.90;;;;;;;26.92;77.57;158298.53;5043066;28;20460;-78
2023/08/16 09:17:13;;;;;;;9.77;8.87;;;;;;;27.03;77.52;158327.34;5039870;28;20461;-78
2023/08/16 09:19:46;;;;;;;9.80;8.57;;;;;;;27.10;76.63;158345.69;5028683;28;20473;-78
2023/08/16 09:22:18;;;;;;;8.90;8.10;;;;;;;27.12;77.64;158350.91;5035250;28;21265;-78
2023/08/16 09:24:48;;;;;;;9.60;8.70;;;;;;;27.23;75.26;158379.75;5038486;28;20463;-78
2023/08/16 09:27:16;;;;;;;8.30;7.60;;;;;;;27.14;75.74;158356.13;5040247;28;20466;-78
2023/08/16 09:29:44;;;;;;;8.50;7.70;;;;;;;27.14;75.19;158356.13;5035808;28;20607;-78
2023/08/16 09:32:33;;;;;;;9.00;8.17;;;;;;;27.20;76.53;158371.88;5046272;23;20502;-85
2023/08/16 09:35:00;;;;;;;10.20;8.97;;;;;;;27.27;75.32;158388.94;5027779;28;20480;-85
2023/08/16 09:37:31;;;;;;;9.53;8.57;;;;;;;27.31;76.31;158399.38;5034604;28;20551;-84
2023/08/16 09:39:58;;;;;;;9.53;8.50;;;;;;;27.49;75.86;158447.94;5024805;28;20466;-85
2023/08/16 09:42:32;;;;;;;9.90;8.50;;;;;;;27.62;74.50;158482.00;5021675;28;20542;-85
2023/08/16 09:44:58;;;;;;;9.60;8.10;;;;;;;27.58;73.66;158471.53;5039098;28;20532;-83
2023/08/16 09:47:25;;;;;;;9.57;8.67;;;;;;;27.63;74.20;158484.63;5036573;28;21030;-84
2023/08/16 09:49:52;;;;;;;9.57;8.70;;;;;;;27.73;74.33;158510.84;5038033;28;20810;-84
2023/08/16 09:52:18;;;;;;;8.70;7.80;;;;;;;27.75;72.93;158516.06;5038432;28;20454;-84
2023/08/16 09:54:49;;;;;;;8.93;8.13;;;;;;;27.84;74.15;158537.03;5039366;28;21098;-85
2023/08/16 09:57:17;;;;;;;9.07;8.17;;;;;;;28.07;73.30;158597.38;5037544;28;20451;-84
2023/08/16 09:59:43;;;;;;;7.83;7.10;;;;;;;28.13;72.04;158613.13;5038072;28;21258;-84
2023/08/16 10:02:12;;;;;;;8.90;8.07;;;;;;;28.27;72.18;158649.84;5037505;28;20485;-84
2023/08/16 10:04:39;;;;;;;8.67;7.90;;;;;;;28.38;71.38;158679.97;5039231;28;20462;-84
2023/08/16 10:07:06;;;;;;;9.13;8.00;;;;;;;28.41;70.70;158685.25;5037789;28;20460;-84
2023/08/16 10:09:34;;;;;;;8.80;7.93;;;;;;;28.40;69.23;158683.94;5033386;28;20463;-84
2023/08/16 10:12:02;;;;;;;9.93;7.50;;;;;;;28.37;71.14;158676.06;5035113;28;20460;-84
2023/08/16 10:14:31;;;;;;;9.70;8.90;;;;;;;28.39;71.64;158681.31;5039033;28;20467;-84
2023/08/16 10:16:59;;;;;;;9.43;8.53;;;;;;;28.21;69.31;158634.09;5034433;28;20448;-84
2023/08/16 10:19:27;;;;;;;9.30;8.60;;;;;;;28.07;71.51;158598.69;5036649;28;20447;-83
2023/08/16 10:21:54;;;;;;;8.90;8.10;;;;;;;28.02;71.38;158584.28;5042482;28;20853;-84
2023/08/16 10:24:21;;;;;;;10.47;8.60;;;;;;;27.97;71.61;158571.13;5037119;28;20522;-84
2023/08/16 10:26:49;;;;;;;8.90;8.20;;;;;;;28.01;72.25;158581.63;5036854;28;20549;-84
2023/08/16 10:29:22;;;;;;;8.90;8.17;;;;;;;28.02;71.51;158584.28;5038097;28;20517;-83
2023/08/16 10:31:51;;;;;;;9.17;8.20;;;;;;;28.11;70.82;158607.91;5018684;28;20447;-84
2023/08/16 10:34:20;;;;;;;9.43;8.53;;;;;;;28.08;70.58;158600.03;5053556;28;20574;-84
2023/08/16 10:36:48;;;;;;;8.27;7.47;;;;;;;28.08;71.54;158601.34;5075967;28;21004;-84
2023/08/16 10:39:22;;;;;;;9.27;8.47;;;;;;;28.07;70.40;158597.38;5059010;28;20457;-84
2023/08/16 10:41:50;;;;;;;8.70;7.90;;;;;;;28.10;70.55;158606.56;5070243;28;20469;-84
2023/08/16 10:44:23;;;;;;;9.93;8.87;;;;;;;28.19;69.60;158630.19;5075589;28;20820;-84
2023/08/16 10:46:50;;;;;;;9.73;8.73;;;;;;;28.22;70.51;158638.03;5072772;28;20524;-84
2023/08/16 10:49:17;;;;;;;8.80;7.90;;;;;;;28.24;69.81;158641.97;5075304;28;20484;-83
2023/08/16 10:51:44;;;;;;;8.50;7.77;;;;;;;28.27;70.03;158649.84;5056102;28;20447;-83
2023/08/16 10:54:10;;;;;;;9.20;8.30;;;;;;;28.28;69.40;158652.44;5074496;28;20590;-83
2023/08/16 10:56:43;;;;;;;8.30;7.60;;;;;;;28.33;70.70;158665.56;5074289;28;20437;-84
2023/08/16 10:59:10;;;;;;;8.70;7.70;;;;;;;28.35;68.02;158672.16;5055890;28;20462;-83
2023/08/16 11:01:45;;;;;;;8.33;7.40;;;;;;;28.29;68.29;158655.09;5057917;28;20898;-84
2023/08/16 11:04:12;;;;;;;8.07;7.27;;;;;;;28.37;67.97;158676.06;5073071;28;20465;-83
2023/08/16 11:06:40;;;;;;;8.60;7.80;;;;;;;28.38;67.86;158678.72;5056894;28;20445;-84
2023/08/16 11:09:06;;;;;;;8.80;7.90;;;;;;;28.38;68.75;158679.97;5067521;28;20485;-84
2023/08/16 11:11:33;;;;;;;10.87;8.60;;;;;;;28.54;70.16;158720.63;5059040;28;20452;-84
2023/08/16 11:14:00;;;;;;;9.60;8.80;;;;;;;28.56;70.81;158724.59;5077511;28;20453;-84
2023/08/16 11:16:27;;;;;;;9.17;8.27;;;;;;;28.54;71.17;158720.63;5072261;28;20449;-83
2023/08/16 11:18:59;;;;;;;9.70;8.73;;;;;;;28.62;70.14;158741.66;5067178;28;20462;-84
2023/08/16 11:21:26;;;;;;;8.80;8.10;;;;;;;28.70;69.03;158762.66;5073022;28;20661;-83
2023/08/16 11:23:54;;;;;;;10.57;9.57;;;;;;;28.56;69.51;158725.91;5057681;28;20488;-83